Farwell, Nebraska
Current Conditions -  °F | °C
As of 10:53 PM on Tuesday 25 Nov 2014 (Local Time) from KODX Reporting Station
Scattered Clouds Scattered Clouds  
Wind Chill: 29°   Ceiling: Unl
Heat Index: 38°   Visibility: 10mi
Dew Point: 30°   Wind: 15mph
Humidity: 73%   Direction: 310°NW
Pressure: 29.87"   Gusts: NA
Location:  41.22°N, 98.63°W
Report Text: KODX 260453Z AUTO 31013KT 10SM FEW031 SCT050 03/M01 A2987 RMK AO2 PK WND 32026/0418 RAE0357 SLP131 P0000 T00331011
Loading
Personal Weather Stations






























Interactive Weather Map New forecast layout! Learn more

10-Day Weather Forecast

Advertisements
Track Severe Weather on mobile